Time;durP1;ratioP1;P1;durP2;ratioP2;P2;SDS_P1;SDS_P2;PMS_P1;PMS_P2;Temp;Humidity;BMP_temperature;BMP_pressure;BME280_temperature;BME280_humidity;BME280_pressure;Samples;Min_cycle;Max_cycle;Signal;HPM_P1;HPM_P2
2021/12/14 00:05:01;;;;;;;9.00;6.18;;;;;;;24.10;31.65;97172.00;10368459;28;96931;-63
2021/12/14 00:10:13;;;;;;;8.20;5.43;;;;;;;24.11;31.38;97168.31;10372336;28;96908;-63
2021/12/14 00:15:18;;;;;;;6.93;5.90;;;;;;;24.09;31.87;97169.56;10358218;28;99169;-62
2021/12/14 00:20:26;;;;;;;6.95;5.35;;;;;;;24.06;31.53;97170.81;10362196;28;99695;-62
2021/12/14 00:25:33;;;;;;;6.88;5.07;;;;;;;24.00;31.85;97163.63;10365611;28;99339;-63
2021/12/14 00:30:37;;;;;;;8.40;5.70;;;;;;;23.98;31.72;97168.31;10367417;28;97084;-63
2021/12/14 00:35:41;;;;;;;7.97;5.88;;;;;;;23.96;31.98;97158.91;10367751;28;97381;-63
2021/12/14 00:40:49;;;;;;;8.13;5.85;;;;;;;23.96;31.85;97165.06;10367296;28;98651;-63
2021/12/14 00:45:52;;;;;;;6.90;5.47;;;;;;;23.93;31.88;97170.81;10371525;28;97171;-63
2021/12/14 00:50:58;;;;;;;7.37;5.37;;;;;;;23.88;32.39;97167.94;10363558;28;97463;-63
2021/12/14 00:56:06;;;;;;;7.05;5.00;;;;;;;23.87;32.28;97167.13;10363218;28;96900;-63
2021/12/14 01:01:13;;;;;;;7.10;4.97;;;;;;;23.88;32.30;97163.44;10366011;28;99310;-63
2021/12/14 01:06:17;;;;;;;6.03;4.90;;;;;;;23.92;32.13;97171.84;10363760;28;97386;-63
2021/12/14 01:11:24;;;;;;;7.57;5.80;;;;;;;23.90;32.39;97181.91;10361583;28;97651;-63
2021/12/14 01:16:35;;;;;;;7.68;5.40;;;;;;;23.87;32.16;97177.81;10362239;28;97044;-63
2021/12/14 01:21:57;;;;;;;5.35;4.65;;;;;;;23.82;32.49;97179.47;10371004;28;97605;-62
2021/12/14 01:27:02;;;;;;;6.78;5.05;;;;;;;23.75;32.70;97184.81;10374997;28;97347;-63
2021/12/14 01:32:07;;;;;;;6.25;4.70;;;;;;;23.69;32.45;97183.81;10375326;28;97046;-63
2021/12/14 01:37:15;;;;;;;5.30;4.68;;;;;;;23.66;32.31;97192.22;10376610;28;98997;-63
2021/12/14 01:42:25;;;;;;;5.50;4.45;;;;;;;23.61;32.85;97197.34;10370612;28;98391;-63
2021/12/14 01:47:31;;;;;;;5.90;4.65;;;;;;;23.59;32.48;97198.59;10378805;28;97234;-63
2021/12/14 01:52:35;;;;;;;5.78;4.82;;;;;;;23.53;32.53;97197.56;10373923;28;97064;-62
2021/12/14 01:57:40;;;;;;;5.75;4.63;;;;;;;23.51;32.73;97199.63;10364190;28;97458;-62
2021/12/14 02:02:47;;;;;;;5.45;4.68;;;;;;;23.47;32.51;97198.41;10378638;28;98512;-62
2021/12/14 02:07:51;;;;;;;5.93;4.82;;;;;;;23.45;32.56;97198.59;10372697;28;98889;-62
2021/12/14 02:12:55;;;;;;;6.28;4.80;;;;;;;23.41;32.64;97188.53;10364399;28;96998;-62
2021/12/14 02:18:00;;;;;;;5.53;4.50;;;;;;;23.38;32.92;97198.59;10377122;28;97047;-62
2021/12/14 02:23:07;;;;;;;5.07;4.18;;;;;;;23.35;32.60;97199.00;10373321;28;97410;-63
2021/12/14 02:28:15;;;;;;;4.82;4.05;;;;;;;23.32;33.10;97193.25;10376062;28;97004;-62
2021/12/14 02:33:21;;;;;;;5.43;4.80;;;;;;;23.28;33.06;97195.53;10371308;28;97839;-62
2021/12/14 02:38:26;;;;;;;6.53;4.82;;;;;;;23.25;32.60;97203.88;10368910;28;98511;-63
2021/12/14 02:43:35;;;;;;;5.38;4.20;;;;;;;23.23;32.81;97203.28;10372250;28;96956;-62
2021/12/14 02:48:39;;;;;;;6.07;4.70;;;;;;;23.19;32.89;97196.72;10371085;28;97004;-63
2021/12/14 02:53:44;;;;;;;5.88;4.72;;;;;;;23.16;32.89;97197.13;10377691;28;97847;-62
2021/12/14 02:58:50;;;;;;;5.05;4.38;;;;;;;23.14;32.83;97196.53;10365070;28;97097;-62
2021/12/14 03:03:53;;;;;;;5.07;4.00;;;;;;;23.06;33.20;97191.38;10365696;28;97186;-62
2021/12/14 03:09:08;;;;;;;5.15;4.20;;;;;;;23.04;33.05;97191.56;10370377;28;97101;-62
2021/12/14 03:14:11;;;;;;;4.53;3.80;;;;;;;23.00;32.95;97183.16;10370003;28;96986;-62
2021/12/14 03:19:14;;;;;;;5.13;4.00;;;;;;;23.00;32.99;97187.69;10363688;28;97370;-62
2021/12/14 03:24:20;;;;;;;4.70;3.65;;;;;;;23.04;32.91;97196.09;10366262;28;97089;-62
2021/12/14 03:29:25;;;;;;;4.78;3.95;;;;;;;22.97;33.22;97194.22;10359794;28;96940;-62
2021/12/14 03:34:31;;;;;;;4.53;3.90;;;;;;;22.95;33.09;97185.63;10369654;28;102494;-62
2021/12/14 03:39:38;;;;;;;5.55;4.10;;;;;;;22.93;33.21;97182.34;10370643;28;98482;-63
2021/12/14 03:44:45;;;;;;;4.80;4.03;;;;;;;22.89;33.66;97178.47;10368656;28;97533;-63
2021/12/14 03:49:50;;;;;;;4.53;3.45;;;;;;;22.88;33.87;97179.47;10365416;28;97077;-63
2021/12/14 03:54:55;;;;;;;4.97;3.60;;;;;;;22.81;33.69;97166.13;10370288;28;98527;-62
2021/12/14 03:59:58;;;;;;;4.97;4.07;;;;;;;22.77;33.60;97172.09;10367031;28;97082;-62
2021/12/14 04:05:09;;;;;;;4.72;3.80;;;;;;;22.76;33.41;97167.78;10361824;28;99514;-62
2021/12/14 04:10:18;;;;;;;5.75;4.20;;;;;;;22.73;33.55;97162.84;10367317;28;98356;-62
2021/12/14 04:15:25;;;;;;;4.60;3.95;;;;;;;22.70;33.62;97166.75;10362496;28;96783;-62
2021/12/14 04:20:33;;;;;;;4.32;3.55;;;;;;;22.70;33.99;97169.41;10363131;28;97001;-62
2021/12/14 04:25:37;;;;;;;5.47;3.88;;;;;;;22.68;33.72;97162.63;10361448;28;97171;-62
2021/12/14 04:30:42;;;;;;;5.22;4.03;;;;;;;22.65;33.77;97152.38;10365665;28;100297;-62
2021/12/14 04:35:48;;;;;;;4.03;3.38;;;;;;;22.66;33.89;97175.31;10359587;28;98611;-62
2021/12/14 04:57:00;;;;;;;3.72;3.30;;;;;;;22.50;33.70;97176.53;10374834;28;97020;-63
2021/12/14 05:02:12;;;;;;;4.72;3.38;;;;;;;22.45;34.16;97188.53;10374939;28;97484;-63
2021/12/14 05:07:47;;;;;;;4.50;3.67;;;;;;;22.45;33.84;97190.38;10370559;28;99297;-63
2021/12/14 05:12:51;;;;;;;4.47;3.50;;;;;;;22.43;33.94;97181.78;10372300;28;97253;-63
2021/12/14 05:17:54;;;;;;;;;;;;;;;22.47;33.80;97185.72;10370920;28;99790;-63
2021/12/14 05:22:57;;;;;;;4.95;3.80;;;;;;;22.41;33.94;97184.66;10373935;28;97004;-63
2021/12/14 05:28:04;;;;;;;4.72;3.60;;;;;;;22.41;33.81;97179.31;10369963;28;97345;-62
2021/12/14 05:33:09;;;;;;;4.38;3.47;;;;;;;22.42;33.91;97182.81;10372654;28;96870;-63
2021/12/14 05:38:16;;;;;;;4.40;3.50;;;;;;;22.37;34.04;97183.41;10371408;28;96943;-63
2021/12/14 05:43:23;;;;;;;3.90;3.20;;;;;;;22.37;34.17;97188.75;10375171;28;98431;-63
2021/12/14 05:48:29;;;;;;;3.97;3.38;;;;;;;22.37;33.91;97193.22;10369582;28;98562;-63
2021/12/14 05:53:35;;;;;;;4.60;3.58;;;;;;;22.41;34.11;97199.81;10376075;28;97211;-63
2021/12/14 05:58:40;;;;;;;4.22;3.35;;;;;;;22.37;34.06;97199.38;10366023;28;97095;-63
2021/12/14 06:03:46;;;;;;;4.53;3.70;;;;;;;22.42;34.40;97201.44;10373997;28;96874;-63
2021/12/14 06:08:49;;;;;;;4.47;3.45;;;;;;;22.43;34.09;97198.56;10366827;28;96921;-63
2021/12/14 06:13:54;;;;;;;4.75;4.07;;;;;;;22.46;33.95;97202.72;10372583;28;97821;-63
2021/12/14 06:19:15;;;;;;;5.00;3.58;;;;;;;22.43;34.14;97193.25;10371630;28;99732;-62
2021/12/14 06:24:19;;;;;;;4.32;3.38;;;;;;;22.49;34.01;97210.31;10372671;28;98713;-63
2021/12/14 06:29:28;;;;;;;5.28;3.38;;;;;;;22.53;33.83;97197.44;10372732;28;97773;-63
2021/12/14 06:34:31;;;;;;;4.75;3.60;;;;;;;22.51;34.38;97189.63;10371500;28;97638;-63
2021/12/14 06:39:57;;;;;;;4.50;3.53;;;;;;;22.53;33.89;97187.59;10369672;28;97114;-63
2021/12/14 06:45:12;;;;;;;3.95;3.10;;;;;;;22.57;33.81;97194.16;10369610;28;98301;-63
2021/12/14 06:50:19;;;;;;;4.32;3.45;;;;;;;22.60;33.86;97191.09;10370136;28;97562;-63
2021/12/14 06:55:25;;;;;;;4.70;3.75;;;;;;;22.64;34.06;97204.81;10371163;28;97582;-62
2021/12/14 07:00:29;;;;;;;4.70;3.63;;;;;;;22.65;33.69;97192.31;10372614;28;97484;-62
2021/12/14 07:05:33;;;;;;;5.18;3.28;;;;;;;22.69;34.00;97191.72;10373139;28;98992;-62
2021/12/14 07:10:36;;;;;;;6.25;3.38;;;;;;;22.73;33.83;97198.28;10365890;28;97654;-62
2021/12/14 07:15:41;;;;;;;5.27;3.67;;;;;;;22.76;33.92;97202.41;10370676;28;97464;-62
2021/12/14 07:20:49;;;;;;;4.88;3.80;;;;;;;22.77;33.63;97204.06;10366475;28;96887;-62
2021/12/14 07:25:56;;;;;;;4.13;3.20;;;;;;;22.79;33.97;97191.34;10358222;28;97661;-62
2021/12/14 07:31:03;;;;;;;4.28;3.17;;;;;;;22.84;33.73;97201.38;10372999;28;96964;-62
2021/12/14 07:36:09;;;;;;;4.30;3.28;;;;;;;22.87;33.61;97201.78;10373216;28;96925;-62
2021/12/14 07:41:23;;;;;;;3.97;3.28;;;;;;;22.87;33.42;97188.47;10370216;28;97452;-62
2021/12/14 07:46:33;;;;;;;4.10;3.20;;;;;;;22.88;33.75;97203.44;10369890;28;96898;-63
2021/12/14 07:51:39;;;;;;;4.65;3.35;;;;;;;22.85;33.67;97211.03;10369283;28;97090;-62
2021/12/14 07:56:45;;;;;;;3.97;3.38;;;;;;;22.93;33.87;97219.66;10363822;28;97781;-62
2021/12/14 08:02:06;;;;;;;4.10;2.88;;;;;;;23.02;33.96;97222.13;10368681;28;97222;-63
2021/12/14 08:07:10;;;;;;;4.28;3.03;;;;;;;23.09;33.77;97220.28;10370581;28;98467;-62
2021/12/14 08:12:34;;;;;;;3.57;3.07;;;;;;;23.09;33.70;97234.44;10369448;28;96905;-62
2021/12/14 08:17:39;;;;;;;3.92;3.30;;;;;;;23.07;33.60;97230.34;10366416;28;97047;-62
2021/12/14 08:22:44;;;;;;;5.10;3.10;;;;;;;23.14;33.90;97226.66;10372357;28;97054;-62
2021/12/14 08:27:56;;;;;;;4.65;2.97;;;;;;;23.08;33.83;97211.47;10370058;28;97087;-62
2021/12/14 08:33:01;;;;;;;4.50;2.88;;;;;;;23.09;33.93;97218.44;10368476;28;97325;-62
2021/12/14 08:38:05;;;;;;;4.07;2.90;;;;;;;23.14;33.63;97215.16;10364362;28;97341;-62
2021/12/14 08:43:13;;;;;;;4.13;3.40;;;;;;;23.17;33.73;97212.09;10368540;28;97100;-62
2021/12/14 08:48:22;;;;;;;4.55;3.38;;;;;;;23.20;33.63;97225.00;10370506;28;101571;-62
2021/12/14 08:53:29;;;;;;;3.83;3.25;;;;;;;23.28;33.53;97229.38;10369289;28;97480;-62
2021/12/14 08:58:32;;;;;;;3.72;2.97;;;;;;;23.31;33.94;97227.09;10371961;28;96972;-62
2021/12/14 09:03:44;;;;;;;3.65;2.97;;;;;;;23.29;33.57;97223.84;10366720;28;97981;-62
2021/12/14 09:08:49;;;;;;;4.43;3.22;;;;;;;23.32;33.62;97243.91;10362875;28;96873;-62
2021/12/14 09:13:57;;;;;;;4.18;3.47;;;;;;;23.29;33.56;97249.66;10353659;28;97505;-63
2021/12/14 09:19:06;;;;;;;5.40;3.47;;;;;;;23.29;33.99;97252.31;10362807;28;98682;-63
2021/12/14 09:24:12;;;;;;;5.05;3.47;;;;;;;23.29;33.41;97245.16;10365698;28;97332;-62
2021/12/14 09:29:18;;;;;;;5.07;3.63;;;;;;;23.34;33.66;97257.84;10362440;28;98406;-62
2021/12/14 09:34:26;;;;;;;4.30;3.30;;;;;;;23.33;33.41;97257.03;10362591;28;96947;-63
2021/12/14 09:39:37;;;;;;;4.88;3.22;;;;;;;23.29;33.77;97260.31;10369942;28;97212;-63
2021/12/14 09:44:41;;;;;;;3.20;2.90;;;;;;;23.35;33.75;97270.19;10371306;28;98246;-63
2021/12/14 09:49:49;;;;;;;3.78;2.90;;;;;;;23.35;33.80;97265.66;10371258;28;96929;-63
2021/12/14 09:54:53;;;;;;;4.32;3.10;;;;;;;23.40;33.72;97269.56;10370648;28;97740;-62
2021/12/14 10:00:00;;;;;;;4.60;3.45;;;;;;;23.43;33.65;97269.16;10366266;28;100390;-63
2021/12/14 10:05:07;;;;;;;3.85;2.92;;;;;;;23.42;33.53;97273.66;10358456;28;98444;-62
2021/12/14 10:10:14;;;;;;;3.78;3.00;;;;;;;23.44;33.33;97273.47;10381537;28;98747;-63
2021/12/14 10:15:23;;;;;;;4.20;3.40;;;;;;;23.43;33.50;97266.47;10364914;28;97550;-62
2021/12/14 10:20:31;;;;;;;3.70;3.15;;;;;;;23.42;33.74;97260.34;10362928;28;97361;-63
2021/12/14 10:25:35;;;;;;;4.32;2.80;;;;;;;23.49;33.36;97255.00;10374188;28;97335;-62
2021/12/14 10:30:43;;;;;;;4.63;3.08;;;;;;;23.55;33.56;97248.84;10370437;28;96967;-63
2021/12/14 10:35:55;;;;;;;3.53;2.75;;;;;;;23.61;33.28;97237.34;10372104;28;96870;-63
2021/12/14 10:46:39;;;;;;;3.53;2.88;;;;;;;23.66;33.47;97224.22;10235803;28;99083;-62
2021/12/14 10:51:46;;;;;;;4.72;3.10;;;;;;;23.66;33.39;97223.41;10237478;28;97243;-62
2021/12/14 10:56:52;;;;;;;4.38;3.30;;;;;;;23.66;33.29;97215.41;10223566;28;97501;-63
2021/12/14 11:01:56;;;;;;;4.10;3.17;;;;;;;23.66;33.23;97216.22;10236222;28;97202;-63
2021/12/14 11:07:02;;;;;;;4.78;3.40;;;;;;;23.52;33.22;97202.06;10236472;28;97245;-63
2021/12/14 11:12:08;;;;;;;4.20;3.15;;;;;;;23.50;33.52;97214.81;10241365;28;97091;-64
2021/12/14 11:22:46;;;;;;;4.13;3.07;;;;;;;23.43;32.90;97214.00;10368094;28;97403;-64
2021/12/14 11:28:14;;;;;;;4.13;3.30;;;;;;;23.40;32.99;97210.91;10357939;28;97365;-63
2021/12/14 11:33:22;;;;;;;3.65;3.00;;;;;;;23.42;32.92;97195.53;10361713;28;97718;-63
2021/12/14 11:38:35;;;;;;;3.42;2.90;;;;;;;23.51;32.24;97191.63;10370426;28;98718;-63
2021/12/14 11:43:38;;;;;;;3.07;2.70;;;;;;;23.52;32.23;97187.94;10369690;28;98087;-63
2021/12/14 11:48:41;;;;;;;3.70;2.83;;;;;;;23.55;32.24;97184.81;10358455;28;97928;-63
2021/12/14 11:53:54;;;;;;;3.13;2.80;;;;;;;23.53;32.01;97186.88;10368548;28;97414;-64
2021/12/14 11:59:00;;;;;;;3.50;2.90;;;;;;;23.53;32.21;97186.88;10366742;28;97769;-62
2021/12/14 12:04:06;;;;;;;3.45;2.70;;;;;;;23.68;32.73;97184.81;10368424;28;97216;-62
2021/12/14 12:09:30;;;;;;;2.85;2.35;;;;;;;23.78;32.99;97181.72;10366804;28;98030;-63
2021/12/14 12:14:36;;;;;;;3.55;2.53;;;;;;;23.88;33.08;97170.59;10370127;28;97183;-62
2021/12/14 12:19:40;;;;;;;3.17;2.47;;;;;;;23.95;32.85;97163.44;10366610;27;98574;-64
2021/12/14 12:24:48;;;;;;;3.53;2.65;;;;;;;24.01;32.78;97162.56;10364793;28;97489;-64
2021/12/14 12:30:12;;;;;;;3.45;2.55;;;;;;;24.05;33.22;97157.63;10367233;28;98389;-64
2021/12/14 12:35:23;;;;;;;3.27;2.50;;;;;;;24.08;32.78;97146.56;10364521;28;97589;-64
2021/12/14 12:40:48;;;;;;;2.97;2.60;;;;;;;24.09;33.19;97151.69;10366842;28;97451;-64
2021/12/14 12:46:07;;;;;;;3.08;2.30;;;;;;;24.13;33.12;97158.25;10363628;28;97364;-63
2021/12/14 12:51:12;;;;;;;3.40;2.60;;;;;;;24.17;33.64;97147.16;10361122;28;96998;-61
2021/12/14 12:56:26;;;;;;;3.08;2.53;;;;;;;24.20;33.34;97144.06;10372769;28;97431;-62
2021/12/14 13:01:29;;;;;;;3.55;2.65;;;;;;;24.16;33.50;97130.31;10372823;28;99961;-62
2021/12/14 13:06:33;;;;;;;3.83;2.70;;;;;;;24.20;33.05;97126.19;10372230;28;97285;-62
2021/12/14 13:11:40;;;;;;;2.78;2.17;;;;;;;24.20;33.44;97128.84;10359062;28;97263;-62
2021/12/14 13:16:46;;;;;;;2.85;2.20;;;;;;;24.22;33.53;97120.63;10374054;28;99332;-62
2021/12/14 13:21:51;;;;;;;3.58;2.53;;;;;;;24.28;33.55;97125.13;10372937;28;96948;-62
2021/12/14 13:27:03;;;;;;;2.60;2.05;;;;;;;24.30;33.64;97123.06;10369114;28;97148;-62
2021/12/14 13:32:10;;;;;;;3.58;2.70;;;;;;;24.30;33.09;97112.38;10367204;28;97041;-62
2021/12/14 13:37:18;;;;;;;3.15;2.70;;;;;;;24.31;33.36;97117.53;10384260;28;98672;-62
2021/12/14 13:42:42;;;;;;;2.80;2.45;;;;;;;24.29;33.46;97124.91;10370880;28;96958;-62
2021/12/14 13:47:46;;;;;;;;;;;;;;;24.25;33.70;97125.56;10364434;28;96987;-63
2021/12/14 13:52:50;;;;;;;3.10;2.60;;;;;;;24.23;33.82;97120.44;10369014;28;97132;-63
2021/12/14 13:57:59;;;;;;;3.00;2.63;;;;;;;24.25;33.32;97114.88;10374484;28;97254;-63
2021/12/14 14:03:06;;;;;;;4.65;3.03;;;;;;;24.33;33.34;97127.97;10368235;28;97044;-64
2021/12/14 14:08:11;;;;;;;3.83;2.87;;;;;;;24.39;33.40;97127.13;10372681;28;98863;-64
2021/12/14 14:13:23;;;;;;;3.47;2.63;;;;;;;24.44;33.10;97137.97;10378717;28;97734;-64
2021/12/14 14:18:29;;;;;;;3.97;2.90;;;;;;;24.39;32.64;97137.81;10367604;28;97402;-63
2021/12/14 14:23:40;;;;;;;3.38;2.85;;;;;;;24.39;32.89;97139.66;10369809;28;97687;-63
2021/12/14 14:28:48;;;;;;;3.70;2.47;;;;;;;24.38;32.70;97141.50;10369841;28;97452;-63
2021/12/14 14:33:53;;;;;;;2.92;2.63;;;;;;;24.37;32.86;97149.75;10369593;28;101012;-63
2021/12/14 14:39:10;;;;;;;3.88;2.85;;;;;;;24.29;33.12;97142.78;10371625;28;97400;-63
2021/12/14 14:44:28;;;;;;;6.00;3.10;;;;;;;24.27;32.92;97151.00;10367083;28;97488;-63
2021/12/14 14:49:57;;;;;;;3.47;2.80;;;;;;;24.34;32.88;97153.66;10373527;28;97299;-64
2021/12/14 14:55:06;;;;;;;3.75;2.90;;;;;;;24.35;32.79;97165.13;10373519;28;97763;-64
2021/12/14 15:00:17;;;;;;;3.95;2.55;;;;;;;24.26;32.54;97161.88;10369887;28;98223;-63
2021/12/14 15:05:30;;;;;;;4.38;2.80;;;;;;;24.23;32.85;97165.00;10358747;28;97161;-63
2021/12/14 15:10:38;;;;;;;3.43;2.93;;;;;;;24.25;33.12;97157.59;10371721;28;97698;-64
2021/12/14 15:15:54;;;;;;;2.95;2.63;;;;;;;24.27;32.97;97161.69;10370923;28;98121;-64
2021/12/14 15:20:57;;;;;;;4.28;2.90;;;;;;;24.24;33.05;97163.97;10368244;28;97148;-63
2021/12/14 15:26:13;;;;;;;3.43;2.90;;;;;;;24.34;33.12;97183.00;10363558;28;97270;-63
2021/12/14 15:31:17;;;;;;;3.72;2.70;;;;;;;24.32;33.20;97182.41;10371478;28;98052;-63
2021/12/14 15:36:25;;;;;;;3.35;3.00;;;;;;;24.29;33.16;97186.31;10363107;28;97318;-63
2021/12/14 15:41:31;;;;;;;3.72;2.88;;;;;;;24.34;33.13;97190.22;10368986;28;96932;-63
2021/12/14 15:46:40;;;;;;;3.38;2.92;;;;;;;24.38;33.07;97186.88;10362253;28;96882;-64
2021/12/14 15:51:47;;;;;;;3.30;2.83;;;;;;;24.38;33.45;97178.88;10367592;28;100171;-63
2021/12/14 15:56:53;;;;;;;3.22;2.58;;;;;;;24.42;33.52;97185.44;10373847;28;97320;-63
2021/12/14 16:02:01;;;;;;;3.63;3.05;;;;;;;24.43;33.03;97187.06;10368156;28;97241;-63
2021/12/14 16:07:08;;;;;;;4.55;3.05;;;;;;;24.41;33.67;97191.81;10364314;27;97395;-63
2021/12/14 16:17:37;;;;;;;3.38;2.70;;;;;;;24.44;33.16;97199.41;10363222;28;96950;-64
2021/12/14 16:22:40;;;;;;;3.70;2.78;;;;;;;24.47;33.36;97199.00;10367107;28;97463;-64
2021/12/14 16:27:47;;;;;;;3.60;3.10;;;;;;;24.45;33.17;97203.72;10361356;28;97045;-62
2021/12/14 16:33:05;;;;;;;3.83;3.00;;;;;;;24.46;32.86;97205.34;10365954;28;97265;-63
2021/12/14 16:38:12;;;;;;;3.15;2.72;;;;;;;24.48;33.04;97205.16;10360538;28;99513;-63
2021/12/14 16:43:21;;;;;;;3.13;2.75;;;;;;;24.48;32.45;97210.47;10377528;27;99247;-63
2021/12/14 16:48:28;;;;;;;4.20;3.03;;;;;;;24.47;32.95;97219.50;10377254;27;97135;-63
2021/12/14 16:53:31;;;;;;;3.30;2.70;;;;;;;24.45;32.44;97227.78;10366025;28;97341;-63
2021/12/14 16:58:34;;;;;;;3.83;2.77;;;;;;;24.40;32.38;97224.91;10375733;28;97126;-63
2021/12/14 17:03:39;;;;;;;3.33;2.70;;;;;;;24.36;32.46;97218.34;10374635;28;97573;-63
2021/12/14 17:08:46;;;;;;;2.88;2.47;;;;;;;24.34;32.16;97228.41;10367853;28;98335;-64
2021/12/14 17:13:53;;;;;;;4.30;2.67;;;;;;;24.34;32.36;97223.06;10373412;28;97207;-65
2021/12/14 17:18:59;;;;;;;3.78;2.97;;;;;;;24.33;32.29;97223.28;10372216;28;103164;-63
2021/12/14 17:24:05;;;;;;;3.08;2.63;;;;;;;24.36;32.09;97228.19;10372669;28;98512;-62
2021/12/14 17:29:10;;;;;;;3.25;2.92;;;;;;;24.36;31.74;97228.19;10371030;28;97184;-63
2021/12/14 17:34:18;;;;;;;3.08;2.50;;;;;;;24.29;32.31;97239.72;10375097;28;97252;-63
2021/12/14 17:39:24;;;;;;;3.80;2.80;;;;;;;24.30;32.08;97237.88;10371652;28;97131;-63
2021/12/14 17:44:30;;;;;;;3.22;2.65;;;;;;;24.34;32.73;97236.44;10370711;28;97288;-63
2021/12/14 17:49:39;;;;;;;3.95;2.67;;;;;;;24.39;32.52;97238.47;10372311;28;97419;-63
2021/12/14 17:54:44;;;;;;;3.33;2.80;;;;;;;24.43;32.39;97239.69;10373398;28;96880;-63
2021/12/14 17:59:51;;;;;;;3.35;2.50;;;;;;;24.45;32.62;97245.63;10367035;28;97181;-63
2021/12/14 18:04:55;;;;;;;2.90;2.40;;;;;;;24.47;33.03;97252.41;10371020;28;98035;-63
2021/12/14 18:09:58;;;;;;;4.22;2.88;;;;;;;24.50;32.82;97241.31;10371208;28;97061;-63
2021/12/14 18:15:04;;;;;;;3.50;2.80;;;;;;;24.49;32.87;97242.31;10372186;28;97734;-63
2021/12/14 18:20:18;;;;;;;3.78;2.97;;;;;;;24.49;33.15;97238.84;10367923;28;96793;-65
2021/12/14 18:25:24;;;;;;;3.10;2.70;;;;;;;24.49;32.92;97241.50;10376351;28;97001;-64
2021/12/14 18:30:32;;;;;;;3.42;2.80;;;;;;;24.45;33.09;97235.78;10377366;28;97031;-65
2021/12/14 18:35:36;;;;;;;3.88;3.30;;;;;;;24.48;33.22;97243.34;10376778;28;97314;-64
2021/12/14 18:40:45;;;;;;;3.78;2.65;;;;;;;24.49;33.11;97246.84;10376461;28;97148;-64
2021/12/14 18:45:57;;;;;;;3.58;2.90;;;;;;;24.54;33.25;97241.69;10373064;28;97018;-63
2021/12/14 18:51:01;;;;;;;4.03;2.95;;;;;;;24.54;33.40;97246.19;10375092;28;97063;-66
2021/12/14 18:56:07;;;;;;;3.78;2.50;;;;;;;24.51;33.62;97242.13;10376046;28;97097;-65
2021/12/14 19:01:13;;;;;;;3.90;3.05;;;;;;;24.46;33.74;97236.59;10374919;28;97408;-64
2021/12/14 19:06:19;;;;;;;5.00;3.20;;;;;;;24.42;33.58;97238.88;10374096;28;102949;-64
2021/12/14 19:11:25;;;;;;;3.80;3.17;;;;;;;24.45;33.72;97238.44;10375155;28;96904;-65
2021/12/14 19:16:32;;;;;;;4.97;3.38;;;;;;;24.40;33.06;97256.97;10376066;28;98715;-65
2021/12/14 19:21:41;;;;;;;4.28;3.50;;;;;;;24.43;32.77;97245.84;10371521;28;98051;-64
2021/12/14 19:26:47;;;;;;;4.63;3.67;;;;;;;24.48;32.94;97258.56;10373173;28;100099;-65
2021/12/14 19:31:52;;;;;;;4.20;3.50;;;;;;;24.50;32.47;97257.34;10367497;28;97188;-65
2021/12/14 19:36:57;;;;;;;4.78;3.50;;;;;;;24.46;32.73;97264.09;10375461;28;97323;-64
2021/12/14 19:42:02;;;;;;;4.45;3.25;;;;;;;24.49;32.95;97261.03;10371092;28;97384;-65
2021/12/14 19:47:08;;;;;;;399.50;117.82;;;;;;;24.55;33.64;97255.88;10372024;28;97008;-65
2021/12/14 19:52:16;;;;;;;964.38;364.13;;;;;;;24.59;33.82;97247.22;10372289;28;98567;-64
2021/12/14 19:57:25;;;;;;;1624.43;598.05;;;;;;;24.65;34.51;97249.03;10370676;28;97140;-64
2021/12/14 20:02:30;;;;;;;1557.88;598.25;;;;;;;24.72;34.14;97253.53;10371806;28;96765;-64
2021/12/14 20:07:37;;;;;;;1514.35;589.72;;;;;;;24.76;34.25;97244.88;10372312;28;96839;-65
2021/12/14 20:12:44;;;;;;;1469.57;579.10;;;;;;;24.81;34.76;97242.41;10369671;28;98244;-64
2021/12/14 20:17:49;;;;;;;1417.63;561.22;;;;;;;24.82;35.32;97246.72;10372159;28;97094;-63
2021/12/14 20:23:00;;;;;;;1380.07;565.33;;;;;;;24.87;35.28;97233.53;10356822;28;97419;-64
2021/12/14 20:28:06;;;;;;;1304.18;542.72;;;;;;;24.97;35.22;97240.25;10373994;28;98684;-66
2021/12/14 20:33:19;;;;;;;1249.10;520.55;;;;;;;24.97;35.51;97232.25;10368208;28;97214;-64
2021/12/14 20:38:24;;;;;;;1147.97;491.10;;;;;;;24.96;35.63;97233.31;10366511;28;96866;-64
2021/12/14 20:43:40;;;;;;;1165.50;499.80;;;;;;;24.98;35.58;97237.38;10371250;28;96998;-64
2021/12/14 20:48:46;;;;;;;1122.13;483.35;;;;;;;24.93;35.69;97239.88;10366649;28;97269;-64
2021/12/14 20:53:54;;;;;;;1052.82;464.70;;;;;;;24.89;35.49;97254.72;10370515;28;96825;-62
2021/12/14 20:59:08;;;;;;;1019.28;452.45;;;;;;;24.85;35.72;97243.63;10364120;28;97221;-64
2021/12/14 21:04:13;;;;;;;966.22;423.00;;;;;;;24.81;35.77;97236.25;10369099;28;98445;-63
2021/12/14 21:09:25;;;;;;;901.28;397.38;;;;;;;24.85;35.82;97243.63;10365971;28;97800;-63
2021/12/14 21:14:36;;;;;;;879.17;392.50;;;;;;;24.86;35.42;97239.09;10366644;28;98913;-63
2021/12/14 21:19:42;;;;;;;825.63;371.95;;;;;;;;;;10369849;28;97185;-64
2021/12/14 21:24:51;;;;;;;817.17;355.60;;;;;;;24.87;35.60;97241.56;10367310;28;98595;-63
2021/12/14 21:29:59;;;;;;;744.88;335.20;;;;;;;24.85;35.69;97243.63;10367804;28;97265;-64
2021/12/14 21:35:28;;;;;;;719.03;321.38;;;;;;;24.78;35.32;97245.50;10375586;28;97076;-64
2021/12/14 21:40:43;;;;;;;668.78;297.23;;;;;;;24.78;35.08;97245.50;10374743;28;96944;-64
2021/12/14 21:45:55;;;;;;;631.05;287.45;;;;;;;24.82;35.62;97259.28;10376084;28;97050;-65
2021/12/14 21:50:58;;;;;;;601.05;274.85;;;;;;;24.79;35.40;97262.34;10372692;28;97049;-64
2021/12/14 21:56:03;;;;;;;570.78;257.35;;;;;;;24.75;35.05;97269.13;10375314;28;98328;-64
2021/12/14 22:01:07;;;;;;;549.47;244.35;;;;;;;24.74;34.99;97262.97;10376199;28;97117;-65
2021/12/14 22:06:10;;;;;;;546.25;234.95;;;;;;;24.75;34.54;97264.63;10377771;28;97183;-67
2021/12/14 22:11:14;;;;;;;505.00;221.00;;;;;;;24.73;34.42;97272.03;10372872;28;97194;-63
2021/12/14 22:16:24;;;;;;;468.27;195.25;;;;;;;24.73;34.51;97264.03;10374344;28;97047;-63
2021/12/14 22:21:27;;;;;;;457.75;189.18;;;;;;;24.72;34.21;97274.91;10367359;28;97278;-64
2021/12/14 22:26:32;;;;;;;425.67;177.90;;;;;;;24.68;34.18;97278.00;10368544;28;96874;-63
2021/12/14 22:31:35;;;;;;;417.60;166.45;;;;;;;24.67;33.67;97272.88;10362443;28;97539;-64
2021/12/14 22:36:38;;;;;;;397.10;161.73;;;;;;;24.60;33.84;97267.56;10365574;28;97926;-63
2021/12/14 22:42:13;;;;;;;358.37;149.30;;;;;;;24.60;33.75;97264.06;10359121;28;99449;-63
2021/12/14 22:47:19;;;;;;;326.60;138.93;;;;;;;24.60;33.77;97262.22;10366586;28;97242;-63
2021/12/14 22:52:25;;;;;;;320.50;134.02;;;;;;;24.60;33.61;97274.75;10369826;28;97019;-63
2021/12/14 22:57:30;;;;;;;308.88;128.25;;;;;;;24.60;33.66;97261.41;10367796;28;97076;-63
2021/12/14 23:02:33;;;;;;;287.83;119.90;;;;;;;24.58;33.14;97266.13;10370876;28;100775;-63
2021/12/14 23:07:36;;;;;;;274.30;110.93;;;;;;;24.52;33.13;97272.31;10374798;28;98524;-62
2021/12/14 23:12:45;;;;;;;245.47;105.53;;;;;;;24.53;33.28;97266.75;10369326;28;98462;-62
2021/12/14 23:17:54;;;;;;;244.55;103.38;;;;;;;24.48;32.95;97267.38;10367074;28;96730;-62
2021/12/14 23:22:57;;;;;;;235.30;99.10;;;;;;;24.44;32.96;97260.84;10357969;28;103170;-63
2021/12/14 23:28:01;;;;;;;226.10;92.88;;;;;;;24.40;32.68;97262.31;10369057;28;97192;-62
2021/12/14 23:33:06;;;;;;;215.20;90.28;;;;;;;24.38;32.88;97258.19;10370390;28;100456;-62
2021/12/14 23:38:09;;;;;;;188.13;80.43;;;;;;;24.35;32.80;97262.09;10372572;28;96832;-63
2021/12/14 23:43:15;;;;;;;183.67;80.20;;;;;;;24.30;32.58;97256.56;10370670;28;96913;-64
2021/12/14 23:48:18;;;;;;;172.02;72.75;;;;;;;24.28;32.56;97259.44;10355049;28;100321;-62
2021/12/14 23:53:21;;;;;;;176.93;72.63;;;;;;;24.22;33.28;97259.47;10361023;28;97247;-63
2021/12/14 23:58:25;;;;;;;156.55;68.07;;;;;;;24.23;33.13;97253.09;10363692;28;96962;-63
